createdAt,value
2022-09-30T00:01:39.997Z,10.40
2022-09-30T00:05:43.279Z,10.40
2022-09-30T00:09:48.203Z,10.30
2022-09-30T00:13:53.162Z,10.40
2022-09-30T00:17:59.674Z,10.30
2022-09-30T00:22:02.880Z,10.30
2022-09-30T00:26:09.683Z,10.30
2022-09-30T00:30:13.212Z,10.40
2022-09-30T00:34:19.640Z,10.40
2022-09-30T00:38:23.003Z,10.30
2022-09-30T00:42:30.113Z,10.30
2022-09-30T00:46:44.416Z,10.40
2022-09-30T00:50:56.674Z,10.30
2022-09-30T00:55:01.869Z,10.30
2022-09-30T00:59:09.273Z,10.30
2022-09-30T01:03:12.590Z,10.30
2022-09-30T01:07:17.362Z,10.30
2022-09-30T01:11:21.239Z,10.30
2022-09-30T01:15:33.619Z,10.30
2022-09-30T01:20:14.386Z,10.30
2022-09-30T01:24:57.591Z,10.20
2022-09-30T01:29:30.067Z,10.30
2022-09-30T01:33:43.432Z,10.40
2022-09-30T01:37:56.953Z,10.30
2022-09-30T01:42:10.982Z,10.20
2022-09-30T01:46:21.121Z,10.20
2022-09-30T01:50:31.224Z,10.20
2022-09-30T01:54:41.811Z,10.30
2022-09-30T01:58:53.617Z,10.30
2022-09-30T02:03:00.785Z,10.30
2022-09-30T02:07:09.607Z,10.20
2022-09-30T02:11:17.645Z,10.20
2022-09-30T02:15:26.287Z,10.20
2022-09-30T02:19:34.973Z,10.20
2022-09-30T02:23:43.723Z,10.10
2022-09-30T02:27:53.489Z,10.10
2022-09-30T02:32:02.227Z,10.10
2022-09-30T02:36:09.791Z,10.10
2022-09-30T02:40:19.758Z,10.10
2022-09-30T02:44:23.141Z,10.10
2022-09-30T02:48:32.671Z,10.00
2022-09-30T02:52:47.442Z,10.00
2022-09-30T02:56:56.411Z,9.90
2022-09-30T03:00:59.792Z,9.90
2022-09-30T03:05:04.352Z,9.90
2022-09-30T03:09:09.142Z,9.90
2022-09-30T03:13:30.761Z,10.00
2022-09-30T03:18:13.404Z,10.00
2022-09-30T03:22:38.124Z,10.00
2022-09-30T03:26:52.674Z,10.00
2022-09-30T03:31:09.676Z,10.10
2022-09-30T03:35:20.551Z,10.10
2022-09-30T03:39:27.924Z,10.10
2022-09-30T03:43:34.484Z,10.10
2022-09-30T03:47:45.234Z,10.00
2022-09-30T03:51:50.950Z,10.10
2022-09-30T03:55:54.541Z,10.10
2022-09-30T03:59:57.826Z,10.20
2022-09-30T04:04:03.806Z,10.20
2022-09-30T04:08:07.029Z,10.20
2022-09-30T04:12:11.542Z,10.20
2022-09-30T04:16:14.884Z,10.10
2022-09-30T04:20:19.699Z,10.10
2022-09-30T04:24:23.728Z,10.10
2022-09-30T04:28:27.594Z,10.10
2022-09-30T04:32:30.844Z,10.10
2022-09-30T04:36:39.831Z,10.00
2022-09-30T04:40:43.043Z,10.00
2022-09-30T04:44:46.461Z,10.00
2022-09-30T04:48:50.487Z,10.00
2022-09-30T04:52:56.281Z,10.00
2022-09-30T04:56:59.656Z,10.00
2022-09-30T05:01:04.089Z,10.00
2022-09-30T05:05:08.698Z,10.00
2022-09-30T05:09:13.474Z,9.90
2022-09-30T05:13:16.886Z,9.90
2022-09-30T05:17:20.080Z,9.90
2022-09-30T05:21:23.412Z,9.90
2022-09-30T05:25:28.353Z,9.90
2022-09-30T05:29:32.072Z,9.90
2022-09-30T05:33:36.270Z,10.00
2022-09-30T05:37:39.607Z,9.90
2022-09-30T05:41:44.300Z,10.00
2022-09-30T05:45:54.140Z,10.10
2022-09-30T05:49:57.545Z,10.20
2022-09-30T05:54:00.862Z,10.40
2022-09-30T05:58:05.576Z,10.40
2022-09-30T06:02:10.473Z,10.50
2022-09-30T06:06:14.090Z,10.60
2022-09-30T06:10:17.686Z,10.60
2022-09-30T06:14:22.956Z,10.80
2022-09-30T06:18:27.738Z,10.80
2022-09-30T06:22:30.944Z,10.90
2022-09-30T06:26:34.349Z,11.00
2022-09-30T06:30:39.052Z,11.10
2022-09-30T06:34:42.488Z,11.10
2022-09-30T06:38:45.714Z,11.10
2022-09-30T06:42:49.374Z,11.10
2022-09-30T06:46:54.937Z,11.20
2022-09-30T06:51:02.198Z,11.10
2022-09-30T06:55:06.419Z,11.00
2022-09-30T06:59:09.979Z,11.10
2022-09-30T07:03:29.509Z,11.20
2022-09-30T07:07:35.988Z,11.30
2022-09-30T07:11:40.089Z,11.20
2022-09-30T07:15:43.609Z,11.30
2022-09-30T07:19:52.170Z,11.40
2022-09-30T07:23:56.828Z,11.50
2022-09-30T07:28:01.385Z,11.70
2022-09-30T07:32:05.087Z,11.60
2022-09-30T07:36:10.809Z,11.60
2022-09-30T07:40:16.375Z,11.60
2022-09-30T07:44:20.176Z,11.70
2022-09-30T07:48:46.857Z,12.00
2022-09-30T07:52:51.716Z,12.10
2022-09-30T07:57:09.716Z,12.20
2022-09-30T08:01:14.211Z,12.30
2022-09-30T08:05:17.883Z,12.40
2022-09-30T08:09:25.355Z,12.70
2022-09-30T08:13:28.736Z,13.00
2022-09-30T08:17:32.139Z,13.60
2022-09-30T08:21:36.397Z,14.30
2022-09-30T08:25:41.559Z,14.60
2022-09-30T08:30:08.575Z,15.10
2022-09-30T08:34:08.772Z,15.00
2022-09-30T08:38:12.000Z,15.40
2022-09-30T08:42:50.580Z,15.10
2022-09-30T08:47:01.620Z,15.70
2022-09-30T08:51:16.785Z,16.20
2022-09-30T08:55:24.686Z,15.80
2022-09-30T08:59:36.252Z,15.00
2022-09-30T09:03:40.688Z,14.90
2022-09-30T09:07:53.372Z,15.60
2022-09-30T09:12:12.094Z,16.20
2022-09-30T09:16:26.508Z,16.00
2022-09-30T09:20:34.810Z,16.60
2022-09-30T09:24:43.392Z,16.40
2022-09-30T09:28:58.845Z,16.30
2022-09-30T09:33:21.435Z,16.10
2022-09-30T09:37:44.721Z,16.70
2022-09-30T09:42:00.564Z,16.70
2022-09-30T09:46:14.657Z,16.80
2022-09-30T09:50:22.939Z,19.90
2022-09-30T09:54:31.269Z,21.80
2022-09-30T09:58:34.870Z,22.30
2022-09-30T10:02:39.969Z,21.70
2022-09-30T10:06:52.998Z,20.10
2022-09-30T10:10:59.154Z,18.40
2022-09-30T10:15:23.862Z,17.50
2022-09-30T10:19:29.730Z,16.80
2022-09-30T10:23:37.792Z,17.20
2022-09-30T10:27:54.991Z,18.30
2022-09-30T10:32:00.018Z,18.20
2022-09-30T10:36:12.896Z,18.70
2022-09-30T10:40:22.706Z,18.20
2022-09-30T10:44:26.152Z,18.00
2022-09-30T10:48:32.754Z,18.20
2022-09-30T10:52:40.128Z,18.40
2022-09-30T10:56:47.049Z,18.20
2022-09-30T11:00:55.193Z,18.00
2022-09-30T11:05:05.014Z,21.80
2022-09-30T11:09:14.181Z,25.80
2022-09-30T11:13:25.082Z,25.10
2022-09-30T11:17:35.124Z,22.10
2022-09-30T11:21:43.653Z,20.90
2022-09-30T11:25:54.714Z,19.80
2022-09-30T11:30:10.378Z,19.20
2022-09-30T11:34:32.754Z,18.70
2022-09-30T11:38:49.051Z,20.30
2022-09-30T11:43:06.278Z,21.40
2022-09-30T11:47:46.754Z,21.10
2022-09-30T11:51:59.373Z,20.50
2022-09-30T11:56:14.084Z,21.80
2022-09-30T12:00:18.727Z,21.10
2022-09-30T12:04:31.728Z,21.30
2022-09-30T12:08:38.851Z,23.80
2022-09-30T12:12:43.014Z,26.30
2022-09-30T12:16:49.134Z,25.50
2022-09-30T12:20:57.837Z,22.60
2022-09-30T12:25:03.143Z,21.30
2022-09-30T12:29:33.321Z,22.30
2022-09-30T12:33:56.908Z,24.00
2022-09-30T12:38:26.027Z,26.20
2022-09-30T12:43:06.584Z,26.00
2022-09-30T12:47:23.351Z,24.60
2022-09-30T12:51:31.664Z,23.80
2022-09-30T12:55:42.820Z,25.00
2022-09-30T12:59:52.877Z,24.00
2022-09-30T13:04:19.490Z,21.80
2022-09-30T13:08:48.528Z,20.80
2022-09-30T13:13:18.257Z,20.00
2022-09-30T13:17:28.587Z,18.90
2022-09-30T13:21:32.378Z,18.50
2022-09-30T13:25:55.410Z,18.30
2022-09-30T13:30:01.774Z,18.00
2022-09-30T13:34:12.203Z,18.10
2022-09-30T13:38:20.444Z,17.70
2022-09-30T13:42:29.653Z,17.50
2022-09-30T13:46:40.060Z,17.00
2022-09-30T13:50:48.551Z,17.10
2022-09-30T13:54:55.138Z,17.10
2022-09-30T13:59:21.698Z,16.90
2022-09-30T14:03:44.884Z,16.60
2022-09-30T14:08:08.295Z,16.90
2022-09-30T14:12:26.577Z,16.90
2022-09-30T14:17:12.458Z,16.80
2022-09-30T14:21:34.261Z,16.40
2022-09-30T14:25:51.279Z,16.20
2022-09-30T14:30:06.667Z,16.10
2022-09-30T14:34:12.848Z,16.00
2022-09-30T14:38:22.304Z,15.80
2022-09-30T14:42:35.033Z,15.70
2022-09-30T14:46:42.014Z,15.60
2022-09-30T14:50:49.337Z,15.80
2022-09-30T14:54:55.190Z,15.80
2022-09-30T14:58:59.463Z,15.90
2022-09-30T15:03:02.904Z,15.60
2022-09-30T15:07:11.052Z,15.40
2022-09-30T15:11:26.010Z,15.20
2022-09-30T15:15:36.587Z,15.30
2022-09-30T15:19:45.418Z,15.40
2022-09-30T15:23:52.389Z,15.20
2022-09-30T15:27:57.382Z,15.10
2022-09-30T15:32:04.942Z,15.10
2022-09-30T15:36:15.985Z,15.10
2022-09-30T15:40:51.067Z,15.10
2022-09-30T15:44:56.893Z,15.00
2022-09-30T15:49:02.874Z,15.00
2022-09-30T15:53:15.587Z,14.60
2022-09-30T15:57:44.539Z,14.40
2022-09-30T16:01:51.055Z,14.40
2022-09-30T16:06:01.249Z,14.30
2022-09-30T16:10:07.056Z,14.20
2022-09-30T16:14:18.765Z,14.30
2022-09-30T16:18:28.222Z,14.20
2022-09-30T16:22:51.684Z,14.20
2022-09-30T16:26:56.759Z,14.20
2022-09-30T16:30:59.966Z,14.20
2022-09-30T16:35:05.333Z,14.10
2022-09-30T16:39:10.128Z,14.10
2022-09-30T16:43:13.498Z,14.00
2022-09-30T16:47:18.085Z,13.90
2022-09-30T16:51:22.715Z,13.90
2022-09-30T16:55:26.781Z,13.80
2022-09-30T16:59:32.707Z,13.80
2022-09-30T17:03:35.948Z,13.70
2022-09-30T17:07:41.421Z,13.70
2022-09-30T17:11:44.677Z,13.60
2022-09-30T17:15:52.753Z,13.40
2022-09-30T17:19:56.615Z,13.20
2022-09-30T17:24:01.500Z,13.30
2022-09-30T17:28:04.987Z,13.30
2022-09-30T17:32:08.935Z,13.30
2022-09-30T17:36:15.091Z,13.20
2022-09-30T17:40:38.095Z,13.30
2022-09-30T17:44:50.960Z,13.30
2022-09-30T17:48:58.579Z,13.30
2022-09-30T17:53:06.008Z,13.20
2022-09-30T17:57:12.140Z,13.10
2022-09-30T18:01:16.961Z,13.10
2022-09-30T18:05:20.553Z,13.10
2022-09-30T18:09:24.824Z,13.00
2022-09-30T18:13:30.824Z,13.00
2022-09-30T18:17:34.400Z,12.90
2022-09-30T18:21:40.346Z,13.00
2022-09-30T18:25:44.284Z,12.90
2022-09-30T18:29:49.922Z,12.80
2022-09-30T18:33:58.627Z,12.90
2022-09-30T18:38:03.677Z,12.90
2022-09-30T18:42:07.107Z,12.90
2022-09-30T18:46:13.936Z,12.90
2022-09-30T18:50:17.986Z,12.90
2022-09-30T18:54:22.083Z,13.00
2022-09-30T18:58:26.411Z,13.00
2022-09-30T19:02:35.703Z,12.90
2022-09-30T19:06:45.732Z,12.80
2022-09-30T19:10:51.496Z,12.80
2022-09-30T19:14:57.432Z,12.80
2022-09-30T19:19:08.275Z,12.80
2022-09-30T19:23:11.954Z,12.90
2022-09-30T19:27:22.054Z,12.90
2022-09-30T19:31:28.177Z,12.80
2022-09-30T19:35:40.972Z,12.90
2022-09-30T19:39:48.347Z,12.80
2022-09-30T19:43:53.430Z,12.80
2022-09-30T19:47:58.879Z,12.80
2022-09-30T19:52:15.015Z,12.80
2022-09-30T19:56:24.099Z,12.80
2022-09-30T20:00:33.085Z,12.70
2022-09-30T20:04:38.096Z,12.80
2022-09-30T20:08:45.720Z,12.80
2022-09-30T20:12:56.646Z,12.70
2022-09-30T20:17:00.179Z,12.70
2022-09-30T20:21:08.611Z,12.70
2022-09-30T20:25:14.073Z,12.80
2022-09-30T20:29:21.036Z,12.70
2022-09-30T20:33:27.101Z,12.70
2022-09-30T20:37:30.930Z,12.80
2022-09-30T20:41:38.069Z,12.70
2022-09-30T20:45:42.649Z,12.70
2022-09-30T20:49:46.390Z,12.60
2022-09-30T20:53:52.381Z,12.50
2022-09-30T20:57:57.076Z,12.60
2022-09-30T21:02:00.818Z,12.50
2022-09-30T21:06:04.841Z,12.60
2022-09-30T21:10:08.718Z,12.60
2022-09-30T21:14:13.415Z,12.60
2022-09-30T21:18:17.577Z,12.60
2022-09-30T21:22:20.945Z,12.70
2022-09-30T21:26:25.816Z,12.60
2022-09-30T21:30:30.944Z,12.70
2022-09-30T21:34:35.938Z,12.70
2022-09-30T21:38:39.290Z,12.60
2022-09-30T21:42:42.775Z,12.50
2022-09-30T21:46:50.294Z,12.60
2022-09-30T21:50:53.762Z,12.60
2022-09-30T21:54:57.353Z,12.60
2022-09-30T21:59:00.998Z,12.60
2022-09-30T22:03:05.965Z,12.50
2022-09-30T22:07:09.403Z,12.70
2022-09-30T22:11:15.912Z,12.60
2022-09-30T22:15:19.323Z,12.50
2022-09-30T22:19:24.303Z,12.60
2022-09-30T22:23:27.600Z,12.60
2022-09-30T22:27:32.917Z,12.60
2022-09-30T22:31:36.531Z,12.60
2022-09-30T22:35:59.718Z,12.60
2022-09-30T22:40:03.391Z,12.60
2022-09-30T22:44:07.693Z,12.50
2022-09-30T22:48:11.201Z,12.50
2022-09-30T22:52:16.254Z,12.60
2022-09-30T22:56:21.743Z,12.70
2022-09-30T23:00:25.701Z,12.70
2022-09-30T23:04:29.311Z,12.60
2022-09-30T23:08:41.530Z,12.60
2022-09-30T23:12:44.928Z,12.50
2022-09-30T23:16:48.904Z,12.50
2022-09-30T23:20:56.554Z,12.50
2022-09-30T23:25:02.621Z,12.50
2022-09-30T23:29:07.795Z,12.50
2022-09-30T23:33:12.089Z,12.50
2022-09-30T23:37:16.135Z,12.50
2022-09-30T23:41:20.959Z,12.50
2022-09-30T23:45:24.525Z,12.60
2022-09-30T23:49:28.096Z,12.60
2022-09-30T23:53:32.275Z,12.60
2022-09-30T23:57:37.141Z,12.60
